createdAt,value
2018-12-09T00:02:01.187Z,9.70
2018-12-09T00:04:29.350Z,9.80
2018-12-09T00:06:57.561Z,9.90
2018-12-09T00:09:25.849Z,10.00
2018-12-09T00:11:53.988Z,10.10
2018-12-09T00:14:22.128Z,10.00
2018-12-09T00:16:50.272Z,10.10
2018-12-09T00:19:18.471Z,10.00
2018-12-09T00:21:46.677Z,10.00
2018-12-09T00:24:14.829Z,10.00
2018-12-09T00:26:42.957Z,10.00
2018-12-09T00:29:11.086Z,10.00
2018-12-09T00:31:39.715Z,10.00
2018-12-09T00:34:07.913Z,10.00
2018-12-09T00:36:36.103Z,10.00
2018-12-09T00:39:06.123Z,10.10
2018-12-09T00:41:34.367Z,10.10
2018-12-09T00:44:02.675Z,10.10
2018-12-09T00:46:30.907Z,10.10
2018-12-09T00:48:59.118Z,10.10
2018-12-09T00:51:27.318Z,10.10
2018-12-09T00:53:55.424Z,10.10
2018-12-09T00:56:23.716Z,10.10
2018-12-09T00:58:51.852Z,10.00
2018-12-09T01:01:20.056Z,10.00
2018-12-09T01:03:48.253Z,9.90
2018-12-09T01:06:16.476Z,9.80
2018-12-09T01:08:44.603Z,9.80
2018-12-09T01:11:12.880Z,9.70
2018-12-09T01:13:41.167Z,9.70
2018-12-09T01:16:09.395Z,9.60
2018-12-09T01:18:37.519Z,9.50
2018-12-09T01:21:05.651Z,9.50
2018-12-09T01:23:33.776Z,9.60
2018-12-09T01:26:02.055Z,9.60
2018-12-09T01:28:30.304Z,9.70
2018-12-09T01:30:58.516Z,9.80
2018-12-09T01:33:26.684Z,9.90
2018-12-09T01:35:54.805Z,9.90
2018-12-09T01:38:23.004Z,10.00
2018-12-09T01:40:55.312Z,10.00
2018-12-09T01:43:23.572Z,9.90
2018-12-09T01:45:51.895Z,9.80
2018-12-09T01:48:20.105Z,9.60
2018-12-09T01:50:48.298Z,9.40
2018-12-09T01:53:28.151Z,9.30
2018-12-09T01:55:56.428Z,9.10
2018-12-09T01:58:24.638Z,8.90
2018-12-09T02:00:52.780Z,8.80
2018-12-09T02:03:20.912Z,8.70
2018-12-09T02:05:49.108Z,8.50
2018-12-09T02:08:17.391Z,8.40
2018-12-09T02:10:45.604Z,8.30
2018-12-09T02:13:14.184Z,8.20
2018-12-09T02:15:42.360Z,8.10
2018-12-09T02:18:10.512Z,8.10
2018-12-09T02:20:38.870Z,8.00
2018-12-09T02:23:07.087Z,7.90
2018-12-09T02:25:35.312Z,7.90
2018-12-09T02:28:03.519Z,7.90
2018-12-09T02:30:31.627Z,7.80
2018-12-09T02:32:59.766Z,7.80
2018-12-09T02:35:28.515Z,7.70
2018-12-09T02:37:56.633Z,7.60
2018-12-09T02:40:24.814Z,7.50
2018-12-09T02:42:53.148Z,7.50
2018-12-09T02:45:21.267Z,7.50
2018-12-09T02:47:49.484Z,7.40
2018-12-09T02:50:17.701Z,7.40
2018-12-09T02:52:45.989Z,7.30
2018-12-09T02:55:14.108Z,7.20
2018-12-09T02:57:42.649Z,7.20
2018-12-09T03:00:11.005Z,7.20
2018-12-09T03:02:39.163Z,7.20
2018-12-09T03:05:07.748Z,7.20
2018-12-09T03:07:35.875Z,7.20
2018-12-09T03:10:04.148Z,7.20
2018-12-09T03:12:32.364Z,7.10
2018-12-09T03:15:00.577Z,7.10
2018-12-09T03:17:28.796Z,7.10
2018-12-09T03:19:56.930Z,7.20
2018-12-09T03:22:25.172Z,7.10
2018-12-09T03:24:53.296Z,7.10
2018-12-09T03:27:21.433Z,7.20
2018-12-09T03:29:49.636Z,7.20
2018-12-09T03:32:18.055Z,7.20
2018-12-09T03:34:46.447Z,7.20
2018-12-09T03:37:14.585Z,7.10
2018-12-09T03:39:42.813Z,7.10
2018-12-09T03:42:11.109Z,7.10
2018-12-09T03:44:39.231Z,7.10
2018-12-09T03:47:07.592Z,7.20
2018-12-09T03:49:35.824Z,7.20
2018-12-09T03:52:04.013Z,7.30
2018-12-09T03:54:32.137Z,7.20
2018-12-09T03:57:00.348Z,7.20
2018-12-09T03:59:28.475Z,7.20
2018-12-09T04:01:56.634Z,7.20
2018-12-09T04:04:24.840Z,7.20
2018-12-09T04:06:53.021Z,7.30
2018-12-09T04:09:21.232Z,7.30
2018-12-09T04:11:49.425Z,7.40
2018-12-09T04:14:17.635Z,7.40
2018-12-09T04:16:46.042Z,7.40
2018-12-09T04:19:14.621Z,7.40
2018-12-09T04:21:42.900Z,7.40
2018-12-09T04:24:11.040Z,7.50
2018-12-09T04:26:39.244Z,7.50
2018-12-09T04:29:10.541Z,7.60
2018-12-09T04:31:38.761Z,7.60
2018-12-09T04:34:06.881Z,7.60
2018-12-09T04:36:35.099Z,7.60
2018-12-09T04:39:04.473Z,7.60
2018-12-09T04:41:32.630Z,7.50
2018-12-09T04:44:00.872Z,7.50
2018-12-09T04:46:28.991Z,7.50
2018-12-09T04:48:57.235Z,7.40
2018-12-09T04:51:31.943Z,7.50
2018-12-09T04:54:00.106Z,7.50
2018-12-09T04:56:28.328Z,7.50
2018-12-09T04:59:22.868Z,7.40
2018-12-09T05:01:51.152Z,7.40
2018-12-09T05:04:19.441Z,7.40
2018-12-09T05:06:47.665Z,7.30
2018-12-09T05:09:15.967Z,7.30
2018-12-09T05:11:44.148Z,7.30
2018-12-09T05:14:12.296Z,7.20
2018-12-09T05:16:40.408Z,7.20
2018-12-09T05:19:08.633Z,7.10
2018-12-09T05:21:36.799Z,7.10
2018-12-09T05:24:05.019Z,7.00
2018-12-09T05:26:33.231Z,7.00
2018-12-09T05:29:01.344Z,7.00
2018-12-09T05:31:29.549Z,6.90
2018-12-09T05:33:57.770Z,6.90
2018-12-09T05:36:26.317Z,6.90
2018-12-09T05:38:54.516Z,7.00
2018-12-09T05:41:22.664Z,7.00
2018-12-09T05:43:50.783Z,7.00
2018-12-09T05:46:18.896Z,7.00
2018-12-09T05:48:47.525Z,7.10
2018-12-09T05:51:15.732Z,7.00
2018-12-09T05:53:43.865Z,7.10
2018-12-09T05:56:12.071Z,7.10
2018-12-09T05:58:40.244Z,7.10
2018-12-09T06:01:08.762Z,7.10
2018-12-09T06:03:36.992Z,7.10
2018-12-09T06:06:05.273Z,7.20
2018-12-09T06:08:33.467Z,7.20
2018-12-09T06:11:01.608Z,7.20
2018-12-09T06:13:29.976Z,7.20
2018-12-09T06:15:58.256Z,7.20
2018-12-09T06:18:26.392Z,7.20
2018-12-09T06:20:54.507Z,7.20
2018-12-09T06:23:22.725Z,7.10
2018-12-09T06:25:50.971Z,7.10
2018-12-09T06:28:19.120Z,7.10
2018-12-09T06:30:47.416Z,7.10
2018-12-09T06:33:15.544Z,7.20
2018-12-09T06:35:43.779Z,7.20
2018-12-09T06:38:11.989Z,7.20
2018-12-09T06:40:40.211Z,7.20
2018-12-09T06:43:08.351Z,7.30
2018-12-09T06:45:36.509Z,7.30
2018-12-09T06:48:04.740Z,7.20
2018-12-09T06:50:32.955Z,7.10
2018-12-09T06:53:01.088Z,7.20
2018-12-09T06:55:29.450Z,7.20
2018-12-09T06:57:57.600Z,7.20
2018-12-09T07:00:25.888Z,7.20
2018-12-09T07:02:54.413Z,7.30
2018-12-09T07:05:22.581Z,7.20
2018-12-09T07:07:50.708Z,7.30
2018-12-09T07:10:19.024Z,7.30
2018-12-09T07:12:47.251Z,7.30
2018-12-09T07:15:15.781Z,7.20
2018-12-09T07:17:44.007Z,7.20
2018-12-09T07:20:12.240Z,7.20
2018-12-09T07:22:40.382Z,7.30
2018-12-09T07:25:08.612Z,7.30
2018-12-09T07:27:37.035Z,7.30
2018-12-09T07:30:06.491Z,7.20
2018-12-09T07:32:34.734Z,7.10
2018-12-09T07:35:02.979Z,7.00
2018-12-09T07:37:31.344Z,6.90
2018-12-09T07:39:59.667Z,6.90
2018-12-09T07:42:27.804Z,6.90
2018-12-09T07:44:56.030Z,6.90
2018-12-09T07:47:24.249Z,6.90
2018-12-09T07:49:52.473Z,6.90
2018-12-09T07:52:21.105Z,6.90
2018-12-09T07:55:12.199Z,7.00
2018-12-09T07:57:40.473Z,7.00
2018-12-09T08:00:08.983Z,7.00
2018-12-09T08:02:37.095Z,7.00
2018-12-09T08:05:05.652Z,7.10
2018-12-09T08:07:33.983Z,7.10
2018-12-09T08:10:02.235Z,7.10
2018-12-09T08:12:30.405Z,7.20
2018-12-09T08:14:58.542Z,7.20
2018-12-09T08:17:26.728Z,7.20
2018-12-09T08:19:55.037Z,7.30
2018-12-09T08:22:23.658Z,7.30
2018-12-09T08:24:51.864Z,7.30
2018-12-09T08:27:26.476Z,7.40
2018-12-09T08:29:56.661Z,7.40
2018-12-09T08:32:27.097Z,7.40
2018-12-09T08:34:55.497Z,7.40
2018-12-09T08:37:23.700Z,7.50
2018-12-09T08:39:52.536Z,7.60
2018-12-09T08:42:20.689Z,7.60
2018-12-09T08:44:48.824Z,7.50
2018-12-09T08:47:17.029Z,7.50
2018-12-09T08:49:45.182Z,7.60
2018-12-09T08:52:14.796Z,7.70
2018-12-09T08:54:43.012Z,7.70
2018-12-09T08:57:11.315Z,7.70
2018-12-09T08:59:39.527Z,7.70
2018-12-09T09:02:07.844Z,7.60
2018-12-09T09:04:53.648Z,7.50
2018-12-09T09:07:21.758Z,7.50
2018-12-09T09:09:49.903Z,7.50
2018-12-09T09:12:18.320Z,7.60
2018-12-09T09:14:46.543Z,7.60
2018-12-09T09:17:14.663Z,7.60
2018-12-09T09:19:42.859Z,7.60
2018-12-09T09:22:11.123Z,7.60
2018-12-09T09:24:39.237Z,7.70
2018-12-09T09:27:07.359Z,7.80
2018-12-09T09:29:35.732Z,7.90
2018-12-09T09:32:04.104Z,7.90
2018-12-09T09:34:32.227Z,7.90
2018-12-09T09:37:00.578Z,7.80
2018-12-09T09:39:28.852Z,7.80
2018-12-09T09:41:57.145Z,7.70
2018-12-09T09:44:25.262Z,7.70
2018-12-09T09:46:53.396Z,7.70
2018-12-09T09:49:21.567Z,7.70
2018-12-09T09:51:49.756Z,7.80
2018-12-09T09:54:18.003Z,7.80
2018-12-09T09:56:46.201Z,7.90
2018-12-09T09:59:14.324Z,8.00
2018-12-09T10:01:42.505Z,8.00
2018-12-09T10:04:10.766Z,8.10
2018-12-09T10:06:38.972Z,8.10
2018-12-09T10:09:07.281Z,8.10
2018-12-09T10:11:35.428Z,8.00
2018-12-09T10:14:03.701Z,8.00
2018-12-09T10:16:31.874Z,8.00
2018-12-09T10:19:00.104Z,7.90
2018-12-09T10:21:28.303Z,7.80
2018-12-09T10:23:56.460Z,7.70
2018-12-09T10:26:24.725Z,7.70
2018-12-09T10:28:54.036Z,7.60
2018-12-09T10:31:22.256Z,7.50
2018-12-09T10:33:50.545Z,7.50
2018-12-09T10:36:18.688Z,7.50
2018-12-09T10:38:46.876Z,7.40
2018-12-09T10:41:15.009Z,7.40
2018-12-09T10:43:43.226Z,7.40
2018-12-09T10:46:11.608Z,7.30
2018-12-09T10:48:39.876Z,7.30
2018-12-09T10:51:08.033Z,7.30
2018-12-09T10:53:36.243Z,7.20
2018-12-09T10:56:04.495Z,7.20
2018-12-09T10:58:32.602Z,7.20
2018-12-09T11:01:09.159Z,7.20
2018-12-09T11:03:37.503Z,7.20
2018-12-09T11:06:05.757Z,7.10
2018-12-09T11:08:33.890Z,7.10
2018-12-09T11:11:02.060Z,7.10
2018-12-09T11:13:30.288Z,7.10
2018-12-09T11:15:58.561Z,7.10
2018-12-09T11:18:26.895Z,7.00
2018-12-09T11:20:55.109Z,7.00
2018-12-09T11:23:23.349Z,7.10
2018-12-09T11:25:51.589Z,7.10
2018-12-09T11:28:19.939Z,7.10
2018-12-09T11:30:48.332Z,7.10
2018-12-09T11:33:16.517Z,7.10
2018-12-09T11:35:44.936Z,7.10
2018-12-09T11:38:13.354Z,7.20
2018-12-09T11:40:41.791Z,7.30
2018-12-09T11:43:09.973Z,7.30
2018-12-09T11:45:38.311Z,7.40
2018-12-09T11:48:06.894Z,7.50
2018-12-09T11:50:35.282Z,7.60
2018-12-09T11:53:03.620Z,7.70
2018-12-09T11:55:31.967Z,7.70
2018-12-09T11:58:00.352Z,7.70
2018-12-09T12:00:28.559Z,7.70
2018-12-09T12:02:56.815Z,7.70
2018-12-09T12:05:25.249Z,7.80
2018-12-09T12:07:53.451Z,7.90
2018-12-09T12:10:21.916Z,8.10
2018-12-09T12:12:50.191Z,8.10
2018-12-09T12:15:25.151Z,8.10
2018-12-09T12:17:53.327Z,8.20
2018-12-09T12:20:21.503Z,8.20
2018-12-09T12:22:49.689Z,8.10
2018-12-09T12:25:17.887Z,8.10
2018-12-09T12:27:46.130Z,8.00
2018-12-09T12:30:14.343Z,8.00
2018-12-09T12:32:42.540Z,8.00
2018-12-09T12:35:10.678Z,8.00
2018-12-09T12:37:38.909Z,8.00
2018-12-09T12:40:07.254Z,7.90
2018-12-09T12:42:36.317Z,7.90
2018-12-09T12:45:05.128Z,7.90
2018-12-09T12:47:33.321Z,7.80
2018-12-09T12:50:01.756Z,7.80
2018-12-09T12:52:30.564Z,7.80
2018-12-09T12:54:58.705Z,7.70
2018-12-09T12:57:26.876Z,7.70
2018-12-09T12:59:55.076Z,7.70
2018-12-09T13:02:23.671Z,7.70
2018-12-09T13:04:52.827Z,7.60
2018-12-09T13:07:21.015Z,7.60
2018-12-09T13:09:49.152Z,7.50
2018-12-09T13:12:17.303Z,7.50
2018-12-09T13:14:45.448Z,7.50
2018-12-09T13:17:14.369Z,7.40
2018-12-09T13:19:42.665Z,7.40
2018-12-09T13:24:36.448Z,7.30
2018-12-09T13:27:04.756Z,7.20
2018-12-09T13:29:33.058Z,7.20
2018-12-09T13:32:01.386Z,7.20
2018-12-09T13:34:30.981Z,7.10
2018-12-09T13:36:59.312Z,7.10
2018-12-09T13:39:27.477Z,7.10
2018-12-09T13:41:55.600Z,7.10
2018-12-09T13:44:23.856Z,7.10
2018-12-09T13:46:52.147Z,7.10
2018-12-09T13:49:20.275Z,7.10
2018-12-09T13:51:48.430Z,7.10
2018-12-09T13:54:16.588Z,7.10
2018-12-09T13:56:45.228Z,7.10
2018-12-09T13:59:13.364Z,7.10
2018-12-09T14:01:41.696Z,7.10
2018-12-09T14:04:10.352Z,7.00
2018-12-09T14:06:38.487Z,7.10
2018-12-09T14:09:07.708Z,7.10
2018-12-09T14:11:36.045Z,7.10
2018-12-09T14:14:04.267Z,7.00
2018-12-09T14:16:32.520Z,7.10
2018-12-09T14:19:00.752Z,7.10
2018-12-09T14:21:29.027Z,7.20
2018-12-09T14:23:57.165Z,7.20
2018-12-09T14:26:25.448Z,7.20
2018-12-09T14:28:55.716Z,7.20
2018-12-09T14:31:23.989Z,7.20
2018-12-09T14:33:52.146Z,7.20
2018-12-09T14:36:20.282Z,7.20
2018-12-09T14:38:48.666Z,7.20
2018-12-09T14:41:16.892Z,7.10
2018-12-09T14:43:45.112Z,7.10
2018-12-09T14:46:13.251Z,7.10
2018-12-09T14:48:41.529Z,7.00
2018-12-09T14:51:09.829Z,7.00
2018-12-09T14:53:38.046Z,6.90
2018-12-09T14:56:06.352Z,6.90
2018-12-09T14:58:34.829Z,6.90
2018-12-09T15:01:03.056Z,6.70
2018-12-09T15:03:31.368Z,6.70
2018-12-09T15:05:59.874Z,6.70
2018-12-09T15:08:28.009Z,6.60
2018-12-09T15:10:56.341Z,6.60
2018-12-09T15:13:24.579Z,6.60
2018-12-09T15:15:52.852Z,6.60
2018-12-09T15:18:21.058Z,6.60
2018-12-09T15:20:49.320Z,6.60
2018-12-09T15:23:17.815Z,6.60
2018-12-09T15:25:45.983Z,6.60
2018-12-09T15:28:14.170Z,6.60
2018-12-09T15:30:42.501Z,6.60
2018-12-09T15:33:10.727Z,6.50
2018-12-09T15:35:38.923Z,6.50
2018-12-09T15:38:07.211Z,6.40
2018-12-09T15:40:35.398Z,6.40
2018-12-09T15:43:03.591Z,6.40
2018-12-09T15:45:31.863Z,6.50
2018-12-09T15:48:00.054Z,6.50
2018-12-09T15:50:28.188Z,6.50
2018-12-09T15:52:56.411Z,6.50
2018-12-09T15:55:24.543Z,6.50
2018-12-09T15:57:52.648Z,6.60
2018-12-09T16:00:21.025Z,6.60
2018-12-09T16:02:49.267Z,6.60
2018-12-09T16:05:17.792Z,6.60
2018-12-09T16:07:45.920Z,6.60
2018-12-09T16:10:19.127Z,6.70
2018-12-09T16:12:47.362Z,6.60
2018-12-09T16:15:15.594Z,6.70
2018-12-09T16:17:44.891Z,6.70
2018-12-09T16:20:13.380Z,6.70
2018-12-09T16:22:41.658Z,6.70
2018-12-09T16:25:09.889Z,6.70
2018-12-09T16:27:38.048Z,6.80
2018-12-09T16:30:07.897Z,6.80
2018-12-09T16:32:36.054Z,6.70
2018-12-09T16:35:04.975Z,6.70
2018-12-09T16:37:33.202Z,6.70
2018-12-09T16:40:01.638Z,6.70
2018-12-09T16:42:29.829Z,6.70
2018-12-09T16:44:58.256Z,6.80
2018-12-09T16:47:26.511Z,6.80
2018-12-09T16:49:54.864Z,6.80
2018-12-09T16:52:23.090Z,6.80
2018-12-09T16:54:51.314Z,6.80
2018-12-09T16:57:19.543Z,6.80
2018-12-09T16:59:47.822Z,6.80
2018-12-09T17:02:16.075Z,6.80
2018-12-09T17:04:44.204Z,6.80
2018-12-09T17:07:12.686Z,6.80
2018-12-09T17:09:40.907Z,6.80
2018-12-09T17:12:09.504Z,6.80
2018-12-09T17:14:37.726Z,6.80
2018-12-09T17:17:05.577Z,6.80
2018-12-09T17:19:34.289Z,6.80
2018-12-09T17:22:02.580Z,6.80
2018-12-09T17:24:30.726Z,6.70
2018-12-09T17:26:58.944Z,6.70
2018-12-09T17:29:27.583Z,6.70
2018-12-09T17:31:55.727Z,6.70
2018-12-09T17:34:23.947Z,6.70
2018-12-09T17:36:52.211Z,6.70
2018-12-09T17:39:20.368Z,6.70
2018-12-09T17:41:48.562Z,6.70
2018-12-09T17:44:16.835Z,6.80
2018-12-09T17:46:45.067Z,6.70
2018-12-09T17:49:13.313Z,6.70
2018-12-09T17:51:41.629Z,6.70
2018-12-09T17:54:09.811Z,6.70
2018-12-09T17:56:37.972Z,6.70
2018-12-09T17:59:06.100Z,6.80
2018-12-09T18:01:34.345Z,6.80
2018-12-09T18:04:02.612Z,6.80
2018-12-09T18:06:30.772Z,6.80
2018-12-09T18:08:59.491Z,6.90
2018-12-09T18:11:27.720Z,6.80
2018-12-09T18:14:03.904Z,6.80
2018-12-09T18:16:32.175Z,6.80
2018-12-09T18:19:00.325Z,6.80
2018-12-09T18:21:28.474Z,6.80
2018-12-09T18:23:56.613Z,6.90
2018-12-09T18:26:25.013Z,7.10
2018-12-09T18:28:53.276Z,7.10
2018-12-09T18:31:21.557Z,7.10
2018-12-09T18:33:49.903Z,7.10
2018-12-09T18:36:18.111Z,7.10
2018-12-09T18:38:46.688Z,7.20
2018-12-09T18:41:14.976Z,7.20
2018-12-09T18:43:49.701Z,7.20
2018-12-09T18:46:17.898Z,7.30
2018-12-09T18:48:46.048Z,7.30
2018-12-09T18:51:14.333Z,7.30
2018-12-09T18:53:42.632Z,7.30
2018-12-09T18:56:10.751Z,7.30
2018-12-09T18:58:38.879Z,7.30
2018-12-09T19:01:07.121Z,7.20
2018-12-09T19:03:35.263Z,7.20
2018-12-09T19:06:03.472Z,7.30
2018-12-09T19:08:31.767Z,7.30
2018-12-09T19:11:00.218Z,7.30
2018-12-09T19:13:28.367Z,7.30
2018-12-09T19:15:56.570Z,7.30
2018-12-09T19:18:24.940Z,7.40
2018-12-09T19:20:53.143Z,7.30
2018-12-09T19:23:21.491Z,7.30
2018-12-09T19:25:49.730Z,7.30
2018-12-09T19:28:48.816Z,7.30
2018-12-09T19:31:16.989Z,7.20
2018-12-09T19:33:45.173Z,7.10
2018-12-09T19:36:13.508Z,7.00
2018-12-09T19:38:41.682Z,7.00
2018-12-09T19:41:09.849Z,7.00
2018-12-09T19:43:38.036Z,7.00
2018-12-09T19:46:06.275Z,7.00
2018-12-09T19:48:34.485Z,7.00
2018-12-09T19:51:02.690Z,7.00
2018-12-09T19:53:30.864Z,6.90
2018-12-09T19:55:59.062Z,6.80
2018-12-09T19:58:27.219Z,6.60
2018-12-09T20:00:55.599Z,6.50
2018-12-09T20:03:24.128Z,6.50
2018-12-09T20:05:52.352Z,6.50
2018-12-09T20:08:20.623Z,6.40
2018-12-09T20:10:48.771Z,6.20
2018-12-09T20:13:16.923Z,6.10
2018-12-09T20:15:45.163Z,6.00
2018-12-09T20:18:13.449Z,5.90
2018-12-09T20:20:48.185Z,5.80
2018-12-09T20:23:16.308Z,5.80
2018-12-09T20:25:44.832Z,5.80
2018-12-09T20:28:13.212Z,5.80
2018-12-09T20:30:41.445Z,5.80
2018-12-09T20:33:09.674Z,5.80
2018-12-09T20:35:37.919Z,5.80
2018-12-09T20:38:06.205Z,5.90
2018-12-09T20:40:34.720Z,5.90
2018-12-09T20:43:02.899Z,5.90
2018-12-09T20:45:31.222Z,6.00
2018-12-09T20:47:59.501Z,6.00
2018-12-09T20:50:27.673Z,6.00
2018-12-09T20:52:55.876Z,6.10
2018-12-09T20:55:24.107Z,6.20
2018-12-09T20:57:52.242Z,6.20
2018-12-09T21:00:20.503Z,6.20
2018-12-09T21:02:48.663Z,6.30
2018-12-09T21:05:16.944Z,6.30
2018-12-09T21:07:45.118Z,6.30
2018-12-09T21:10:13.506Z,6.30
2018-12-09T21:12:41.648Z,6.30
2018-12-09T21:15:09.805Z,6.30
2018-12-09T21:17:37.973Z,6.30
2018-12-09T21:20:06.332Z,6.30
2018-12-09T21:22:34.541Z,6.30
2018-12-09T21:25:02.790Z,6.20
2018-12-09T21:27:32.926Z,6.20
2018-12-09T21:30:01.189Z,6.20
2018-12-09T21:32:29.323Z,6.20
2018-12-09T21:34:57.469Z,6.20
2018-12-09T21:37:25.700Z,6.20
2018-12-09T21:39:53.853Z,6.10
2018-12-09T21:42:22.000Z,6.10
2018-12-09T21:44:50.166Z,6.10
2018-12-09T21:47:18.328Z,6.10
2018-12-09T21:49:46.525Z,6.10
2018-12-09T21:52:14.741Z,6.10
2018-12-09T21:54:42.935Z,6.10
2018-12-09T21:57:11.084Z,6.20
2018-12-09T21:59:39.219Z,6.20
2018-12-09T22:02:07.452Z,6.40
2018-12-09T22:04:35.563Z,6.50
2018-12-09T22:07:03.804Z,6.50
2018-12-09T22:09:31.995Z,6.50
2018-12-09T22:12:00.508Z,6.50
2018-12-09T22:14:29.128Z,6.60
2018-12-09T22:16:57.473Z,6.60
2018-12-09T22:19:25.611Z,6.50
2018-12-09T22:21:53.830Z,6.40
2018-12-09T22:24:22.019Z,6.40
2018-12-09T22:26:50.441Z,6.40
2018-12-09T22:29:18.564Z,6.50
2018-12-09T22:31:46.812Z,6.50
2018-12-09T22:34:15.052Z,6.50
2018-12-09T22:36:43.312Z,6.40
2018-12-09T22:39:11.456Z,6.30
2018-12-09T22:41:39.616Z,6.20
2018-12-09T22:44:07.848Z,6.30
2018-12-09T22:46:36.008Z,6.40
2018-12-09T22:49:04.248Z,6.30
2018-12-09T22:51:32.814Z,6.30
2018-12-09T22:54:01.015Z,6.20
2018-12-09T22:56:29.361Z,6.20
2018-12-09T22:58:57.559Z,6.20
2018-12-09T23:01:25.915Z,6.10
2018-12-09T23:03:54.498Z,6.10
2018-12-09T23:06:23.078Z,6.00
2018-12-09T23:08:51.217Z,5.90
2018-12-09T23:11:19.700Z,5.80
2018-12-09T23:13:47.902Z,5.70
2018-12-09T23:16:16.475Z,5.70
2018-12-09T23:18:44.636Z,5.70
2018-12-09T23:21:12.840Z,5.70
2018-12-09T23:23:40.999Z,5.60
2018-12-09T23:26:09.375Z,5.60
2018-12-09T23:28:37.545Z,5.70
2018-12-09T23:31:05.663Z,5.70
2018-12-09T23:33:34.183Z,5.60
2018-12-09T23:36:02.318Z,5.60
2018-12-09T23:38:30.797Z,5.50
2018-12-09T23:40:58.977Z,5.50
2018-12-09T23:43:27.170Z,5.50
2018-12-09T23:45:55.816Z,5.60
2018-12-09T23:48:24.098Z,5.60
2018-12-09T23:50:52.241Z,5.60
2018-12-09T23:53:20.518Z,5.60
2018-12-09T23:55:48.892Z,5.60
2018-12-09T23:58:17.033Z,5.60
